Failsworth, United Kingdom
Current Conditions -  °F | °C
As of 12:20 PM on Monday 20 Oct 2014 (Local Time) from EGCC Reporting Station
Scattered Clouds Scattered Clouds  
Wind Chill: 54°   Ceiling: Unl
Heat Index: 54°   Visibility: 6mi
Dew Point: 54°   Wind: 8mph
Humidity: 100%   Direction: 210°SSW
Pressure: 29.91"   Gusts: NA
Location:  53.5°N, 2.17°W
Report Text: EGCC 201120Z 21007KT 9999 FEW016 SCT047 12/12 Q1013
Loading
Personal Weather Stations






























Interactive Weather Map
Tropical Storm Tracking
New forecast layout! Learn more

10-Day Weather Forecast

Advertisements
Track Severe Weather on mobile